createdAt,value
2023-04-29T00:00:11.335Z,4.22
2023-04-29T00:02:42.503Z,3.47
2023-04-29T00:05:10.472Z,7.05
2023-04-29T00:07:38.094Z,5.53
2023-04-29T00:10:05.730Z,5.10
2023-04-29T00:12:33.582Z,3.55
2023-04-29T00:15:03.115Z,4.28
2023-04-29T00:17:33.728Z,4.07
2023-04-29T00:20:00.843Z,3.42
2023-04-29T00:22:28.066Z,3.17
2023-04-29T00:24:55.063Z,2.65
2023-04-29T00:27:22.857Z,3.10
2023-04-29T00:29:49.930Z,2.90
2023-04-29T00:32:17.075Z,2.63
2023-04-29T00:34:44.076Z,2.42
2023-04-29T00:37:11.021Z,2.63
2023-04-29T00:39:37.983Z,2.38
2023-04-29T00:42:05.005Z,2.50
2023-04-29T00:44:32.017Z,6.82
2023-04-29T00:46:59.567Z,2.47
2023-04-29T00:49:27.904Z,2.75
2023-04-29T00:51:58.024Z,2.45
2023-04-29T00:54:25.649Z,2.53
2023-04-29T00:56:56.030Z,2.42
2023-04-29T00:59:23.908Z,2.80
2023-04-29T01:01:51.149Z,2.40
2023-04-29T01:04:21.336Z,3.70
2023-04-29T01:07:14.793Z,3.03
2023-04-29T01:09:59.844Z,2.00
2023-04-29T01:12:26.908Z,2.92
2023-04-29T01:15:11.130Z,5.13
2023-04-29T01:17:45.184Z,2.53
2023-04-29T01:20:12.648Z,2.63
2023-04-29T01:22:39.673Z,2.72
2023-04-29T01:25:08.057Z,2.45
2023-04-29T01:28:02.730Z,4.72
2023-04-29T01:30:42.389Z,3.15
2023-04-29T01:33:54.154Z,3.03
2023-04-29T01:37:00.986Z,2.95
2023-04-29T01:39:46.585Z,2.75
2023-04-29T01:42:26.867Z,4.78
2023-04-29T01:45:05.860Z,2.53
2023-04-29T01:47:37.579Z,2.42
2023-04-29T01:50:05.142Z,2.83
2023-04-29T01:52:32.829Z,3.55
2023-04-29T01:55:00.597Z,3.08
2023-04-29T01:57:36.486Z,2.97
2023-04-29T02:00:32.364Z,3.85
2023-04-29T02:02:59.752Z,3.08
2023-04-29T02:05:36.456Z,2.95
2023-04-29T02:08:09.532Z,3.33
2023-04-29T02:11:00.029Z,2.92
2023-04-29T02:13:37.468Z,3.25
2023-04-29T02:16:09.645Z,3.30
2023-04-29T02:18:38.398Z,3.60
2023-04-29T02:21:06.240Z,4.28
2023-04-29T02:23:35.978Z,3.78
2023-04-29T02:26:08.186Z,4.07
2023-04-29T02:28:35.725Z,3.63
2023-04-29T02:31:04.174Z,5.35
2023-04-29T02:33:32.323Z,3.03
2023-04-29T02:35:59.937Z,4.55
2023-04-29T02:38:27.137Z,3.40
2023-04-29T02:40:54.110Z,5.28
2023-04-29T02:43:22.616Z,4.38
2023-04-29T02:45:49.657Z,2.42
2023-04-29T02:48:17.283Z,2.88
2023-04-29T02:50:44.474Z,4.03
2023-04-29T02:53:11.470Z,3.78
2023-04-29T02:55:38.556Z,4.05
2023-04-29T02:58:11.263Z,2.08
2023-04-29T03:00:38.437Z,2.50
2023-04-29T03:03:05.660Z,1.80
2023-04-29T03:05:38.629Z,9.20
2023-04-29T03:08:11.518Z,4.38
2023-04-29T03:10:41.490Z,1.92
2023-04-29T03:13:09.319Z,2.22
2023-04-29T03:15:37.290Z,4.28
2023-04-29T03:18:05.181Z,2.80
2023-04-29T03:20:34.156Z,3.58
2023-04-29T03:23:04.742Z,3.42
2023-04-29T03:25:31.750Z,3.40
2023-04-29T03:27:59.420Z,4.20
2023-04-29T03:30:26.599Z,1.85
2023-04-29T03:32:57.043Z,2.03
2023-04-29T03:35:28.658Z,2.17
2023-04-29T03:38:10.901Z,3.58
2023-04-29T03:40:41.963Z,2.17
2023-04-29T03:43:09.960Z,3.50
2023-04-29T03:45:37.542Z,2.42
2023-04-29T03:48:06.834Z,5.68
2023-04-29T03:50:36.641Z,2.55
2023-04-29T03:53:03.722Z,2.00
2023-04-29T03:55:31.195Z,3.50
2023-04-29T03:57:58.251Z,2.22
2023-04-29T04:00:26.771Z,3.05
2023-04-29T04:02:59.138Z,2.90
2023-04-29T04:05:26.951Z,2.80
2023-04-29T04:08:01.011Z,2.10
2023-04-29T04:10:39.055Z,2.47
2023-04-29T04:13:16.891Z,2.15
2023-04-29T04:15:50.273Z,5.13
2023-04-29T04:18:17.342Z,2.38
2023-04-29T04:20:44.931Z,1.83
2023-04-29T04:23:12.093Z,4.20
2023-04-29T04:25:45.065Z,2.40
2023-04-29T04:28:33.836Z,4.20
2023-04-29T04:31:07.786Z,2.78
2023-04-29T04:33:37.865Z,6.07
2023-04-29T04:36:05.150Z,2.35
2023-04-29T04:38:33.035Z,3.42
2023-04-29T04:41:02.789Z,5.88
2023-04-29T04:43:38.599Z,2.28
2023-04-29T04:46:12.099Z,3.70
2023-04-29T04:48:43.619Z,2.65
2023-04-29T04:51:14.435Z,5.80
2023-04-29T04:53:43.031Z,2.97
2023-04-29T04:56:18.561Z,2.83
2023-04-29T04:58:45.667Z,2.75
2023-04-29T05:01:12.659Z,3.72
2023-04-29T05:03:40.377Z,3.13
2023-04-29T05:06:07.728Z,2.78
2023-04-29T05:08:39.346Z,3.75
2023-04-29T05:11:16.687Z,3.60
2023-04-29T05:13:44.426Z,2.75
2023-04-29T05:16:12.017Z,3.92
2023-04-29T05:18:45.802Z,3.00
2023-04-29T05:21:14.516Z,3.53
2023-04-29T05:23:43.467Z,3.00
2023-04-29T05:26:10.619Z,3.75
2023-04-29T05:28:37.675Z,5.75
2023-04-29T05:31:08.554Z,9.48
2023-04-29T05:33:36.175Z,3.83
2023-04-29T05:36:03.519Z,3.88
2023-04-29T05:38:33.646Z,3.28
2023-04-29T05:41:07.083Z,7.40
2023-04-29T05:43:43.309Z,5.13
2023-04-29T05:46:13.570Z,4.82
2023-04-29T05:48:40.938Z,3.17
2023-04-29T05:51:07.913Z,3.30
2023-04-29T05:53:36.374Z,4.28
2023-04-29T05:56:08.241Z,4.95
2023-04-29T05:58:36.356Z,7.65
2023-04-29T06:01:03.494Z,9.35
2023-04-29T06:03:36.410Z,4.88
2023-04-29T06:06:27.774Z,4.80
2023-04-29T06:09:26.448Z,7.45
2023-04-29T06:11:56.556Z,5.72
2023-04-29T06:14:24.004Z,4.03
2023-04-29T06:16:51.224Z,3.65
2023-04-29T06:19:18.225Z,4.88
2023-04-29T06:21:45.213Z,3.45
2023-04-29T06:24:12.458Z,4.07
2023-04-29T06:26:39.707Z,4.25
2023-04-29T06:29:06.822Z,4.18
2023-04-29T06:31:35.401Z,8.40
2023-04-29T06:34:04.300Z,6.10
2023-04-29T06:36:33.177Z,3.88
2023-04-29T06:39:39.210Z,5.03
2023-04-29T06:42:20.775Z,7.40
2023-04-29T06:45:17.829Z,4.50
2023-04-29T06:48:03.818Z,8.27
2023-04-29T06:50:39.527Z,6.00
2023-04-29T06:53:07.865Z,9.95
2023-04-29T06:55:35.759Z,20.92
2023-04-29T06:58:06.227Z,8.85
2023-04-29T07:00:34.565Z,4.15
2023-04-29T07:03:01.924Z,3.33
2023-04-29T07:05:29.406Z,4.32
2023-04-29T07:07:56.680Z,3.30
2023-04-29T07:10:28.687Z,4.55
2023-04-29T07:12:57.614Z,4.18
2023-04-29T07:15:24.691Z,3.10
2023-04-29T07:17:52.317Z,4.60
2023-04-29T07:20:21.926Z,4.28
2023-04-29T07:22:49.847Z,3.90
2023-04-29T07:25:17.095Z,8.10
2023-04-29T07:27:44.698Z,5.70
2023-04-29T07:30:12.051Z,3.83
2023-04-29T07:32:39.152Z,3.45
2023-04-29T07:35:09.553Z,3.42
2023-04-29T07:37:37.515Z,8.50
2023-04-29T07:40:04.982Z,3.20
2023-04-29T07:42:32.809Z,7.05
2023-04-29T07:45:00.124Z,5.85
2023-04-29T07:47:27.369Z,4.78
2023-04-29T07:49:54.612Z,3.38
2023-04-29T07:52:22.249Z,3.50
2023-04-29T07:54:50.499Z,11.27
2023-04-29T07:57:17.682Z,7.28
2023-04-29T07:59:44.653Z,8.88
2023-04-29T08:02:11.757Z,3.28
2023-04-29T08:04:42.773Z,16.23
2023-04-29T08:07:13.334Z,8.73
2023-04-29T08:09:41.043Z,4.80
2023-04-29T08:12:12.690Z,5.15
2023-04-29T08:14:41.444Z,6.55
2023-04-29T08:17:08.771Z,7.25
2023-04-29T08:19:36.350Z,3.28
2023-04-29T08:22:04.491Z,3.45
2023-04-29T08:24:33.641Z,4.50
2023-04-29T08:27:01.902Z,4.68
2023-04-29T08:29:37.696Z,4.63
2023-04-29T08:32:08.044Z,3.90
2023-04-29T08:34:36.487Z,3.90
2023-04-29T08:37:22.466Z,6.15
2023-04-29T08:39:49.745Z,4.70
2023-04-29T08:42:29.773Z,6.93
2023-04-29T08:44:59.969Z,4.38
2023-04-29T08:47:30.877Z,3.65
2023-04-29T08:50:04.548Z,4.88
2023-04-29T08:52:33.536Z,7.53
2023-04-29T08:55:02.769Z,3.85
2023-04-29T08:57:40.206Z,5.53
2023-04-29T09:00:10.360Z,5.15
2023-04-29T09:02:54.472Z,6.63
2023-04-29T09:05:26.987Z,8.10
2023-04-29T09:07:56.971Z,3.45
2023-04-29T09:10:24.039Z,8.02
2023-04-29T09:12:56.358Z,5.43
2023-04-29T09:15:23.418Z,5.65
2023-04-29T09:17:50.609Z,8.15
2023-04-29T09:20:21.177Z,6.97
2023-04-29T09:22:50.236Z,7.38
2023-04-29T09:25:20.632Z,5.60
2023-04-29T09:27:49.758Z,4.32
2023-04-29T09:30:17.064Z,5.50
2023-04-29T09:32:45.823Z,6.20
2023-04-29T09:35:22.973Z,2.88
2023-04-29T09:37:50.002Z,5.38
2023-04-29T09:40:46.537Z,3.95
2023-04-29T09:43:19.208Z,4.28
2023-04-29T09:45:48.440Z,4.72
2023-04-29T09:48:18.774Z,3.25
2023-04-29T09:51:01.604Z,4.18
2023-04-29T09:53:31.993Z,5.60
2023-04-29T09:56:01.489Z,3.33
2023-04-29T09:58:38.177Z,8.48
2023-04-29T10:01:06.532Z,2.75
2023-04-29T10:03:38.656Z,2.53
2023-04-29T10:06:07.836Z,4.38
2023-04-29T10:08:35.537Z,9.07
2023-04-29T10:11:04.305Z,7.88
2023-04-29T10:13:31.727Z,5.68
2023-04-29T10:16:28.202Z,3.65
2023-04-29T10:18:57.001Z,3.97
2023-04-29T10:21:31.716Z,5.22
2023-04-29T10:24:00.308Z,3.85
2023-04-29T10:26:29.429Z,4.57
2023-04-29T10:28:57.590Z,5.80
2023-04-29T10:31:28.126Z,3.67
2023-04-29T10:33:57.818Z,4.35
2023-04-29T10:36:34.925Z,6.38
2023-04-29T10:39:13.977Z,6.72
2023-04-29T10:41:49.136Z,3.70
2023-04-29T10:44:32.051Z,3.80
2023-04-29T10:47:21.440Z,4.07
2023-04-29T10:50:07.038Z,8.60
2023-04-29T10:52:52.155Z,4.82
2023-04-29T10:55:19.192Z,9.35
2023-04-29T10:57:46.842Z,3.70
2023-04-29T11:00:24.000Z,2.30
2023-04-29T11:02:51.357Z,4.13
2023-04-29T11:05:33.642Z,3.97
2023-04-29T11:08:26.609Z,5.63
2023-04-29T11:10:54.637Z,2.63
2023-04-29T11:13:30.118Z,4.15
2023-04-29T11:16:12.702Z,8.52
2023-04-29T11:19:06.492Z,5.70
2023-04-29T11:21:37.557Z,5.72
2023-04-29T11:24:06.814Z,2.95
2023-04-29T11:26:38.587Z,10.10
2023-04-29T11:29:05.892Z,5.55
2023-04-29T11:31:33.892Z,5.88
2023-04-29T11:34:05.988Z,5.78
2023-04-29T11:37:36.924Z,3.75
2023-04-29T11:40:06.528Z,3.63
2023-04-29T11:42:50.748Z,6.15
2023-04-29T11:45:19.128Z,5.05
2023-04-29T11:47:47.956Z,4.95
2023-04-29T11:50:18.038Z,3.90
2023-04-29T11:52:47.745Z,5.60
2023-04-29T11:55:14.871Z,6.05
2023-04-29T11:57:42.234Z,5.57
2023-04-29T12:00:14.035Z,2.83
2023-04-29T12:02:49.356Z,2.28
2023-04-29T12:05:17.726Z,4.22
2023-04-29T12:07:45.676Z,5.25
2023-04-29T12:10:13.142Z,4.55
2023-04-29T12:12:43.473Z,5.32
2023-04-29T12:15:10.900Z,4.38
2023-04-29T12:17:39.086Z,5.53
2023-04-29T12:20:09.447Z,4.05
2023-04-29T12:22:36.552Z,4.78
2023-04-29T12:25:07.532Z,4.78
2023-04-29T12:27:39.968Z,5.82
2023-04-29T12:30:09.627Z,7.10
2023-04-29T12:32:37.368Z,4.82
2023-04-29T12:35:04.780Z,5.30
2023-04-29T12:37:34.037Z,5.63
2023-04-29T12:40:01.279Z,12.27
2023-04-29T12:42:34.556Z,4.85
2023-04-29T12:45:01.967Z,3.92
2023-04-29T12:47:34.782Z,4.93
2023-04-29T12:50:01.959Z,3.17
2023-04-29T12:52:30.636Z,4.88
2023-04-29T12:54:57.940Z,5.03
2023-04-29T12:57:32.009Z,5.70
2023-04-29T12:59:58.927Z,7.55
2023-04-29T13:04:53.795Z,7.95
2023-04-29T13:07:21.160Z,4.22
2023-04-29T13:09:53.138Z,4.68
2023-04-29T13:12:20.035Z,4.40
2023-04-29T13:14:47.022Z,7.85
2023-04-29T13:17:15.057Z,5.25
2023-04-29T13:19:51.205Z,3.90
2023-04-29T13:22:19.124Z,2.20
2023-04-29T13:24:47.004Z,3.55
2023-04-29T13:27:14.230Z,4.82
2023-04-29T13:29:41.351Z,1.48
2023-04-29T13:32:08.959Z,5.05
2023-04-29T13:34:36.672Z,5.90
2023-04-29T13:37:07.153Z,3.47
2023-04-29T13:39:37.880Z,5.03
2023-04-29T13:42:05.467Z,3.80
2023-04-29T13:44:44.494Z,6.50
2023-04-29T13:47:25.159Z,2.75
2023-04-29T13:59:55.437Z,2.33
2023-04-29T14:02:25.527Z,6.35
2023-04-29T14:04:54.458Z,3.15
2023-04-29T14:07:31.258Z,7.90
2023-04-29T14:09:59.304Z,6.63
2023-04-29T14:12:26.475Z,7.93
2023-04-29T14:14:55.309Z,7.18
2023-04-29T14:17:22.511Z,3.53
2023-04-29T14:19:49.518Z,3.35
2023-04-29T14:22:16.649Z,5.82
2023-04-29T14:24:43.678Z,3.10
2023-04-29T14:27:10.665Z,1.95
2023-04-29T14:29:37.702Z,5.68
2023-04-29T14:32:04.973Z,4.95
2023-04-29T14:34:31.878Z,3.25
2023-04-29T14:36:59.455Z,8.82
2023-04-29T14:39:27.215Z,3.40
2023-04-29T14:41:54.808Z,1.75
2023-04-29T14:44:21.866Z,5.18
2023-04-29T14:46:49.040Z,2.95
2023-04-29T14:49:16.240Z,4.20
2023-04-29T14:51:43.273Z,2.42
2023-04-29T14:54:11.566Z,1.83
2023-04-29T14:56:38.619Z,2.20
2023-04-29T14:59:08.767Z,4.28
2023-04-29T15:01:36.692Z,8.18
2023-04-29T15:04:04.453Z,2.42
2023-04-29T15:06:32.479Z,5.10
2023-04-29T15:09:00.134Z,2.97
2023-04-29T15:11:27.142Z,3.58
2023-04-29T15:13:54.103Z,6.43
2023-04-29T15:16:21.470Z,5.68
2023-04-29T15:18:48.518Z,4.03
2023-04-29T15:21:15.618Z,5.93
2023-04-29T15:23:43.469Z,3.10
2023-04-29T15:26:10.651Z,3.25
2023-04-29T15:28:38.273Z,6.70
2023-04-29T15:31:05.696Z,4.63
2023-04-29T15:33:33.292Z,4.05
2023-04-29T15:36:00.393Z,3.10
2023-04-29T15:38:27.562Z,5.60
2023-04-29T15:41:00.613Z,5.50
2023-04-29T15:43:28.777Z,2.03
2023-04-29T15:45:56.498Z,9.73
2023-04-29T15:48:25.036Z,9.35
2023-04-29T15:50:53.632Z,8.05
2023-04-29T15:53:20.816Z,6.32
2023-04-29T15:55:47.746Z,3.42
2023-04-29T15:58:14.856Z,3.53
2023-04-29T16:00:41.860Z,5.82
2023-04-29T16:03:08.961Z,5.68
2023-04-29T16:05:39.246Z,3.83
2023-04-29T16:08:07.463Z,3.72
2023-04-29T16:10:34.800Z,9.23
2023-04-29T16:13:01.949Z,3.67
2023-04-29T16:15:29.720Z,5.90
2023-04-29T16:17:57.088Z,3.55
2023-04-29T16:20:25.726Z,3.92
2023-04-29T16:22:53.426Z,4.22
2023-04-29T16:25:20.454Z,9.05
2023-04-29T16:27:47.676Z,6.18
2023-04-29T16:30:14.757Z,20.77
2023-04-29T16:32:43.145Z,11.77
2023-04-29T16:35:10.805Z,7.90
2023-04-29T16:37:40.637Z,5.32
2023-04-29T16:40:09.221Z,9.55
2023-04-29T16:42:36.114Z,9.23
2023-04-29T16:45:04.223Z,6.68
2023-04-29T16:47:32.952Z,13.57
2023-04-29T16:50:00.238Z,12.32
2023-04-29T16:52:27.282Z,6.07
2023-04-29T16:54:56.438Z,10.18
2023-04-29T16:57:26.572Z,9.85
2023-04-29T16:59:54.491Z,8.82
2023-04-29T17:02:21.918Z,7.05
2023-04-29T17:04:49.248Z,10.55
2023-04-29T17:07:19.466Z,8.50
2023-04-29T17:09:47.741Z,9.73
2023-04-29T17:12:14.924Z,7.78
2023-04-29T17:14:41.903Z,8.88
2023-04-29T17:17:09.272Z,7.25
2023-04-29T17:19:36.222Z,7.85
2023-04-29T17:22:03.214Z,13.73
2023-04-29T17:24:30.302Z,12.95
2023-04-29T17:26:57.270Z,8.00
2023-04-29T17:29:24.324Z,6.65
2023-04-29T17:31:59.552Z,20.02
2023-04-29T17:34:29.850Z,10.57
2023-04-29T17:36:57.032Z,11.27
2023-04-29T17:39:24.747Z,16.63
2023-04-29T17:41:51.612Z,16.05
2023-04-29T17:44:19.704Z,10.05
2023-04-29T17:46:48.394Z,17.80
2023-04-29T17:49:15.677Z,23.98
2023-04-29T17:51:42.601Z,13.98
2023-04-29T17:54:10.498Z,19.48
2023-04-29T17:56:38.163Z,17.30
2023-04-29T17:59:06.160Z,15.73
2023-04-29T18:01:33.599Z,13.15
2023-04-29T18:04:01.450Z,14.60
2023-04-29T18:06:30.475Z,10.70
2023-04-29T18:08:57.890Z,25.58
2023-04-29T18:11:25.254Z,17.88
2023-04-29T18:13:54.144Z,17.50
2023-04-29T18:16:21.891Z,28.65
2023-04-29T18:18:57.810Z,25.55
2023-04-29T18:21:27.480Z,16.92
2023-04-29T18:23:55.745Z,24.83
2023-04-29T18:26:23.693Z,13.02
2023-04-29T18:28:50.899Z,13.73
2023-04-29T18:31:23.320Z,18.48
2023-04-29T18:33:52.574Z,23.27
2023-04-29T18:36:21.441Z,15.05
2023-04-29T18:38:48.493Z,16.23
2023-04-29T18:41:17.723Z,21.42
2023-04-29T18:43:44.893Z,31.48
2023-04-29T18:46:11.876Z,27.20
2023-04-29T18:48:40.674Z,19.23
2023-04-29T18:51:07.699Z,21.27
2023-04-29T18:53:34.782Z,12.27
2023-04-29T18:56:01.873Z,23.35
2023-04-29T18:58:29.673Z,24.75
2023-04-29T19:00:59.937Z,24.77
2023-04-29T19:03:27.339Z,19.05
2023-04-29T19:05:54.319Z,20.95
2023-04-29T19:08:21.391Z,19.15
2023-04-29T19:10:52.876Z,14.55
2023-04-29T19:13:22.096Z,18.58
2023-04-29T19:15:51.134Z,17.85
2023-04-29T19:18:20.228Z,20.13
2023-04-29T19:20:49.007Z,19.73
2023-04-29T19:23:16.035Z,27.85
2023-04-29T19:25:43.010Z,23.35
2023-04-29T19:28:10.256Z,11.88
2023-04-29T19:30:37.364Z,25.35
2023-04-29T19:33:04.569Z,23.23
2023-04-29T19:35:33.178Z,30.83
2023-04-29T19:38:00.977Z,28.30
2023-04-29T19:40:28.123Z,26.20
2023-04-29T19:42:55.208Z,27.52
2023-04-29T19:45:22.413Z,12.15
2023-04-29T19:47:50.072Z,19.85
2023-04-29T19:50:17.826Z,26.13
2023-04-29T19:52:55.965Z,29.40
2023-04-29T19:55:23.401Z,27.38
2023-04-29T19:57:51.512Z,49.13
2023-04-29T20:00:18.869Z,24.05
2023-04-29T20:02:47.485Z,26.83
2023-04-29T20:05:15.403Z,35.72
2023-04-29T20:07:42.663Z,31.25
2023-04-29T20:10:10.827Z,22.50
2023-04-29T20:12:37.926Z,25.95
2023-04-29T20:15:06.083Z,29.60
2023-04-29T20:17:33.494Z,33.35
2023-04-29T20:20:00.670Z,27.73
2023-04-29T20:22:29.376Z,42.00
2023-04-29T20:24:56.637Z,23.42
2023-04-29T20:27:23.777Z,35.20
2023-04-29T20:29:51.254Z,35.22
2023-04-29T20:32:18.712Z,26.95
2023-04-29T20:34:45.947Z,31.77
2023-04-29T20:37:12.951Z,28.55
2023-04-29T20:39:40.035Z,27.23
2023-04-29T20:42:06.996Z,21.17
2023-04-29T20:44:34.019Z,26.05
2023-04-29T20:47:01.232Z,34.13
2023-04-29T20:49:28.199Z,25.13
2023-04-29T20:51:58.482Z,26.20
2023-04-29T20:54:25.909Z,26.73
2023-04-29T20:56:52.829Z,21.65
2023-04-29T20:59:19.757Z,30.65
2023-04-29T21:01:46.830Z,26.90
2023-04-29T21:04:14.770Z,30.70
2023-04-29T21:06:41.890Z,23.80
2023-04-29T21:09:11.853Z,23.83
2023-04-29T21:11:38.959Z,37.03
2023-04-29T21:14:06.124Z,30.65
2023-04-29T21:16:33.433Z,28.30
2023-04-29T21:19:00.346Z,26.90
2023-04-29T21:21:27.409Z,32.13
2023-04-29T21:23:54.308Z,32.63
2023-04-29T21:26:21.477Z,30.38
2023-04-29T21:28:48.540Z,25.48
2023-04-29T21:31:16.553Z,44.40
2023-04-29T21:33:44.483Z,35.78
2023-04-29T21:36:11.864Z,36.28
2023-04-29T21:38:38.778Z,36.20
2023-04-29T21:41:06.422Z,36.25
2023-04-29T21:43:33.971Z,31.75
2023-04-29T21:46:03.592Z,28.45
2023-04-29T21:48:32.238Z,36.28
2023-04-29T21:51:00.104Z,23.77
2023-04-29T21:53:27.011Z,30.67
2023-04-29T21:55:54.337Z,30.77
2023-04-29T21:58:21.353Z,27.55
2023-04-29T22:00:58.464Z,33.85
2023-04-29T22:03:25.719Z,21.45
2023-04-29T22:05:52.676Z,27.35
2023-04-29T22:08:20.041Z,22.25
2023-04-29T22:10:47.044Z,23.13
2023-04-29T22:13:14.527Z,30.63
2023-04-29T22:15:41.956Z,30.73
2023-04-29T22:18:09.098Z,14.75
2023-04-29T22:20:36.074Z,26.65
2023-04-29T22:23:03.133Z,21.30
2023-04-29T22:25:33.151Z,27.38
2023-04-29T22:28:00.380Z,22.95
2023-04-29T22:30:27.657Z,31.52
2023-04-29T22:32:55.239Z,22.83
2023-04-29T22:35:22.819Z,24.00
2023-04-29T22:37:49.789Z,18.13
2023-04-29T22:40:16.948Z,35.30
2023-04-29T22:42:43.974Z,32.55
2023-04-29T22:45:12.194Z,28.08
2023-04-29T22:47:39.914Z,27.17
2023-04-29T22:50:07.729Z,23.88
2023-04-29T22:52:34.727Z,30.38
2023-04-29T22:55:02.287Z,26.50
2023-04-29T22:57:30.857Z,32.72
2023-04-29T22:59:58.034Z,19.92
2023-04-29T23:02:29.414Z,21.45
2023-04-29T23:04:57.362Z,25.55
2023-04-29T23:07:25.355Z,26.05
2023-04-29T23:09:53.049Z,28.27
2023-04-29T23:12:20.886Z,20.88
2023-04-29T23:14:47.987Z,18.83
2023-04-29T23:17:14.894Z,22.58
2023-04-29T23:19:42.374Z,24.52
2023-04-29T23:22:10.209Z,24.50
2023-04-29T23:24:37.987Z,38.33
2023-04-29T23:27:07.051Z,29.35
2023-04-29T23:29:34.303Z,27.40
2023-04-29T23:32:08.157Z,28.13
2023-04-29T23:34:35.129Z,29.63
2023-04-29T23:37:13.094Z,24.50
2023-04-29T23:39:44.516Z,28.35
2023-04-29T23:42:11.384Z,24.17
2023-04-29T23:44:43.724Z,27.95
2023-04-29T23:47:11.661Z,23.17
2023-04-29T23:49:38.799Z,30.23
2023-04-29T23:52:07.797Z,20.13
2023-04-29T23:54:34.735Z,22.35
2023-04-29T23:57:02.762Z,32.33
2023-04-29T23:59:29.711Z,29.05
